<?xml version="1.0" encoding="UTF-8" standalone="no" ?>
<gpx xmlns="http://www.topografix.com/GPX/1/1" xmlns:xsi="http://www.w3.org/2001/XMLSchema-instance" xsi:schemaLocation="http://www.topografix.com/GPX/1/1 http://www.topografix.com/GPX/1/1/gpx.xsd" version="1.1" creator="VisuGPX - https://www.visugpx.com">
  <metadata>
    <name>ARQUES LA SEYNE SUR MER 1497 KM</name>
    <desc><![CDATA[Rando de Arques dans le Pas de Calais jusque La Seyne sur Mer dans le Var, 1497 km]]></desc>
  </metadata>
  <trk>
    <name><![CDATA[32 - SASSANGY MALAY 24.8 KM]]></name>
    <extensions>
      <line xmlns="http://www.topografix.com/GPX/gpx_style/0/2">
        <color>000088</color>
        <width>4</width>
      </line>
    </extensions>
    <trkseg>
      <trkpt lat="46.71867" lon="4.6371">
        <ele>322</ele>
        <time>2021-11-15T14:52:09+01:00</time>
      </trkpt>
      <trkpt lat="46.71905" lon="4.6372">
        <ele>325</ele>
        <time>2021-11-15T14:52:14+01:00</time>
      </trkpt>
      <trkpt lat="46.71928" lon="4.63768">
        <ele>328</ele>
        <time>2021-11-15T14:52:19+01:00</time>
      </trkpt>
      <trkpt lat="46.71848" lon="4.63905">
        <ele>318</ele>
        <time>2021-11-15T14:52:24+01:00</time>
      </trkpt>
      <trkpt lat="46.7175" lon="4.63727">
        <ele>312</ele>
        <time>2021-11-15T14:52:29+01:00</time>
      </trkpt>
      <trkpt lat="46.71686" lon="4.63686">
        <ele>306</ele>
        <time>2021-11-15T14:52:34+01:00</time>
      </trkpt>
      <trkpt lat="46.71587" lon="4.6372">
        <ele>296</ele>
        <time>2021-11-15T14:52:39+01:00</time>
      </trkpt>
      <trkpt lat="46.71507" lon="4.63809">
        <ele>290</ele>
        <time>2021-11-15T14:52:44+01:00</time>
      </trkpt>
      <trkpt lat="46.71235" lon="4.63905">
        <ele>292</ele>
        <time>2021-11-15T14:52:49+01:00</time>
      </trkpt>
      <trkpt lat="46.71105" lon="4.64245">
        <ele>308</ele>
        <time>2021-11-15T14:52:54+01:00</time>
      </trkpt>
      <trkpt lat="46.71079" lon="4.63915">
        <ele>303</ele>
        <time>2021-11-15T14:52:59+01:00</time>
      </trkpt>
      <trkpt lat="46.70863" lon="4.64423">
        <ele>345</ele>
        <time>2021-11-15T14:53:04+01:00</time>
      </trkpt>
      <trkpt lat="46.70741" lon="4.64625">
        <ele>367</ele>
        <time>2021-11-15T14:53:09+01:00</time>
      </trkpt>
      <trkpt lat="46.70492" lon="4.6514">
        <ele>392</ele>
        <time>2021-11-15T14:53:14+01:00</time>
      </trkpt>
      <trkpt lat="46.70437" lon="4.65345">
        <ele>390</ele>
        <time>2021-11-15T14:53:19+01:00</time>
      </trkpt>
      <trkpt lat="46.70454" lon="4.65452">
        <ele>384</ele>
        <time>2021-11-15T14:53:24+01:00</time>
      </trkpt>
      <trkpt lat="46.70517" lon="4.66018">
        <ele>377</ele>
        <time>2021-11-15T14:53:29+01:00</time>
      </trkpt>
      <trkpt lat="46.70482" lon="4.6634">
        <ele>373</ele>
        <time>2021-11-15T14:53:34+01:00</time>
      </trkpt>
      <trkpt lat="46.70447" lon="4.6646">
        <ele>375</ele>
        <time>2021-11-15T14:53:39+01:00</time>
      </trkpt>
      <trkpt lat="46.70477" lon="4.66635">
        <ele>370</ele>
        <time>2021-11-15T14:53:44+01:00</time>
      </trkpt>
      <trkpt lat="46.7043" lon="4.66779">
        <ele>374</ele>
        <time>2021-11-15T14:53:49+01:00</time>
      </trkpt>
      <trkpt lat="46.70365" lon="4.66817">
        <ele>379</ele>
        <time>2021-11-15T14:53:54+01:00</time>
      </trkpt>
      <trkpt lat="46.70202" lon="4.66988">
        <ele>388</ele>
        <time>2021-11-15T14:53:59+01:00</time>
      </trkpt>
      <trkpt lat="46.69908" lon="4.67077">
        <ele>392</ele>
        <time>2021-11-15T14:54:04+01:00</time>
      </trkpt>
      <trkpt lat="46.6984" lon="4.67016">
        <ele>397</ele>
        <time>2021-11-15T14:54:09+01:00</time>
      </trkpt>
      <trkpt lat="46.69779" lon="4.66882">
        <ele>402</ele>
        <time>2021-11-15T14:54:14+01:00</time>
      </trkpt>
      <trkpt lat="46.69466" lon="4.667">
        <ele>400</ele>
        <time>2021-11-15T14:54:19+01:00</time>
      </trkpt>
      <trkpt lat="46.69334" lon="4.66583">
        <ele>401</ele>
        <time>2021-11-15T14:54:24+01:00</time>
      </trkpt>
      <trkpt lat="46.69243" lon="4.6658">
        <ele>400</ele>
        <time>2021-11-15T14:54:29+01:00</time>
      </trkpt>
      <trkpt lat="46.69137" lon="4.66542">
        <ele>400</ele>
        <time>2021-11-15T14:54:34+01:00</time>
      </trkpt>
      <trkpt lat="46.68814" lon="4.66292">
        <ele>384</ele>
        <time>2021-11-15T14:54:39+01:00</time>
      </trkpt>
      <trkpt lat="46.68706" lon="4.66371">
        <ele>388</ele>
        <time>2021-11-15T14:54:44+01:00</time>
      </trkpt>
      <trkpt lat="46.6852" lon="4.66511">
        <ele>397</ele>
        <time>2021-11-15T14:54:49+01:00</time>
      </trkpt>
      <trkpt lat="46.68382" lon="4.66525">
        <ele>395</ele>
        <time>2021-11-15T14:54:54+01:00</time>
      </trkpt>
      <trkpt lat="46.68132" lon="4.66481">
        <ele>392</ele>
        <time>2021-11-15T14:54:59+01:00</time>
      </trkpt>
      <trkpt lat="46.67913" lon="4.6658">
        <ele>407</ele>
        <time>2021-11-15T14:55:04+01:00</time>
      </trkpt>
      <trkpt lat="46.67751" lon="4.66604">
        <ele>418</ele>
        <time>2021-11-15T14:55:09+01:00</time>
      </trkpt>
      <trkpt lat="46.67542" lon="4.66511">
        <ele>420</ele>
        <time>2021-11-15T14:55:14+01:00</time>
      </trkpt>
      <trkpt lat="46.67332" lon="4.66398">
        <ele>410</ele>
        <time>2021-11-15T14:55:19+01:00</time>
      </trkpt>
      <trkpt lat="46.67208" lon="4.66347">
        <ele>412</ele>
        <time>2021-11-15T14:55:24+01:00</time>
      </trkpt>
      <trkpt lat="46.67047" lon="4.66522">
        <ele>410</ele>
        <time>2021-11-15T14:55:29+01:00</time>
      </trkpt>
      <trkpt lat="46.67012" lon="4.66611">
        <ele>399</ele>
        <time>2021-11-15T14:55:34+01:00</time>
      </trkpt>
      <trkpt lat="46.66897" lon="4.6671">
        <ele>387</ele>
        <time>2021-11-15T14:55:39+01:00</time>
      </trkpt>
      <trkpt lat="46.66815" lon="4.667">
        <ele>386</ele>
        <time>2021-11-15T14:55:44+01:00</time>
      </trkpt>
      <trkpt lat="46.66553" lon="4.66583">
        <ele>384</ele>
        <time>2021-11-15T14:55:49+01:00</time>
      </trkpt>
      <trkpt lat="46.66464" lon="4.66601">
        <ele>382</ele>
        <time>2021-11-15T14:55:54+01:00</time>
      </trkpt>
      <trkpt lat="46.66219" lon="4.66508">
        <ele>382</ele>
        <time>2021-11-15T14:55:59+01:00</time>
      </trkpt>
      <trkpt lat="46.66151" lon="4.66539">
        <ele>374</ele>
        <time>2021-11-15T14:56:04+01:00</time>
      </trkpt>
      <trkpt lat="46.66026" lon="4.66501">
        <ele>372</ele>
        <time>2021-11-15T14:56:09+01:00</time>
      </trkpt>
      <trkpt lat="46.65941" lon="4.66443">
        <ele>368</ele>
        <time>2021-11-15T14:56:14+01:00</time>
      </trkpt>
      <trkpt lat="46.65802" lon="4.66251">
        <ele>365</ele>
        <time>2021-11-15T14:56:19+01:00</time>
      </trkpt>
      <trkpt lat="46.65734" lon="4.66223">
        <ele>366</ele>
        <time>2021-11-15T14:56:24+01:00</time>
      </trkpt>
      <trkpt lat="46.65682" lon="4.66179">
        <ele>373</ele>
        <time>2021-11-15T14:56:29+01:00</time>
      </trkpt>
      <trkpt lat="46.65581" lon="4.66158">
        <ele>359</ele>
        <time>2021-11-15T14:56:34+01:00</time>
      </trkpt>
      <trkpt lat="46.65478" lon="4.65997">
        <ele>360</ele>
        <time>2021-11-15T14:56:39+01:00</time>
      </trkpt>
      <trkpt lat="46.65416" lon="4.6585">
        <ele>353</ele>
        <time>2021-11-15T14:56:44+01:00</time>
      </trkpt>
      <trkpt lat="46.65384" lon="4.65723">
        <ele>346</ele>
        <time>2021-11-15T14:56:49+01:00</time>
      </trkpt>
      <trkpt lat="46.65372" lon="4.65503">
        <ele>330</ele>
        <time>2021-11-15T14:56:54+01:00</time>
      </trkpt>
      <trkpt lat="46.65261" lon="4.65435">
        <ele>314</ele>
        <time>2021-11-15T14:56:59+01:00</time>
      </trkpt>
      <trkpt lat="46.65146" lon="4.65448">
        <ele>300</ele>
        <time>2021-11-15T14:57:04+01:00</time>
      </trkpt>
      <trkpt lat="46.65021" lon="4.65479">
        <ele>285</ele>
        <time>2021-11-15T14:57:09+01:00</time>
      </trkpt>
      <trkpt lat="46.64868" lon="4.65417">
        <ele>293</ele>
        <time>2021-11-15T14:57:14+01:00</time>
      </trkpt>
      <trkpt lat="46.64724" lon="4.65634">
        <ele>300</ele>
        <time>2021-11-15T14:57:19+01:00</time>
      </trkpt>
      <trkpt lat="46.64621" lon="4.65743">
        <ele>307</ele>
        <time>2021-11-15T14:57:24+01:00</time>
      </trkpt>
      <trkpt lat="46.64498" lon="4.65836">
        <ele>318</ele>
        <time>2021-11-15T14:57:29+01:00</time>
      </trkpt>
      <trkpt lat="46.64244" lon="4.65928">
        <ele>340</ele>
        <time>2021-11-15T14:57:34+01:00</time>
      </trkpt>
      <trkpt lat="46.64089" lon="4.65887">
        <ele>338</ele>
        <time>2021-11-15T14:57:39+01:00</time>
      </trkpt>
      <trkpt lat="46.64025" lon="4.65935">
        <ele>337</ele>
        <time>2021-11-15T14:57:44+01:00</time>
      </trkpt>
      <trkpt lat="46.63995" lon="4.65946">
        <ele>337</ele>
        <time>2021-11-15T14:57:49+01:00</time>
      </trkpt>
      <trkpt lat="46.63811" lon="4.65887">
        <ele>348</ele>
        <time>2021-11-15T14:57:54+01:00</time>
      </trkpt>
      <trkpt lat="46.63618" lon="4.65946">
        <ele>344</ele>
        <time>2021-11-15T14:57:59+01:00</time>
      </trkpt>
      <trkpt lat="46.63568" lon="4.66045">
        <ele>339</ele>
        <time>2021-11-15T14:58:04+01:00</time>
      </trkpt>
      <trkpt lat="46.63439" lon="4.66076">
        <ele>323</ele>
        <time>2021-11-15T14:58:09+01:00</time>
      </trkpt>
      <trkpt lat="46.63385" lon="4.66148">
        <ele>317</ele>
        <time>2021-11-15T14:58:14+01:00</time>
      </trkpt>
      <trkpt lat="46.63208" lon="4.66247">
        <ele>309</ele>
        <time>2021-11-15T14:58:19+01:00</time>
      </trkpt>
      <trkpt lat="46.63095" lon="4.66395">
        <ele>311</ele>
        <time>2021-11-15T14:58:24+01:00</time>
      </trkpt>
      <trkpt lat="46.62951" lon="4.66522">
        <ele>323</ele>
        <time>2021-11-15T14:58:29+01:00</time>
      </trkpt>
      <trkpt lat="46.62822" lon="4.66614">
        <ele>329</ele>
        <time>2021-11-15T14:58:34+01:00</time>
      </trkpt>
      <trkpt lat="46.62754" lon="4.66645">
        <ele>335</ele>
        <time>2021-11-15T14:58:39+01:00</time>
      </trkpt>
      <trkpt lat="46.62438" lon="4.66662">
        <ele>338</ele>
        <time>2021-11-15T14:58:44+01:00</time>
      </trkpt>
      <trkpt lat="46.62254" lon="4.66652">
        <ele>326</ele>
        <time>2021-11-15T14:58:49+01:00</time>
      </trkpt>
      <trkpt lat="46.62113" lon="4.66621">
        <ele>324</ele>
        <time>2021-11-15T14:58:54+01:00</time>
      </trkpt>
      <trkpt lat="46.61979" lon="4.66621">
        <ele>311</ele>
        <time>2021-11-15T14:58:59+01:00</time>
      </trkpt>
      <trkpt lat="46.61887" lon="4.66655">
        <ele>301</ele>
        <time>2021-11-15T14:59:04+01:00</time>
      </trkpt>
      <trkpt lat="46.61818" lon="4.66642">
        <ele>293</ele>
        <time>2021-11-15T14:59:09+01:00</time>
      </trkpt>
      <trkpt lat="46.6159" lon="4.66529">
        <ele>267</ele>
        <time>2021-11-15T14:59:14+01:00</time>
      </trkpt>
      <trkpt lat="46.61515" lon="4.6646">
        <ele>254</ele>
        <time>2021-11-15T14:59:19+01:00</time>
      </trkpt>
      <trkpt lat="46.61442" lon="4.66511">
        <ele>249</ele>
        <time>2021-11-15T14:59:24+01:00</time>
      </trkpt>
      <trkpt lat="46.61427" lon="4.66467">
        <ele>245</ele>
        <time>2021-11-15T14:59:29+01:00</time>
      </trkpt>
      <trkpt lat="46.61385" lon="4.66474">
        <ele>243</ele>
        <time>2021-11-15T14:59:34+01:00</time>
      </trkpt>
      <trkpt lat="46.61352" lon="4.66261">
        <ele>232</ele>
        <time>2021-11-15T14:59:39+01:00</time>
      </trkpt>
      <trkpt lat="46.61173" lon="4.66251">
        <ele>225</ele>
        <time>2021-11-15T14:59:44+01:00</time>
      </trkpt>
      <trkpt lat="46.60989" lon="4.66309">
        <ele>223</ele>
        <time>2021-11-15T14:59:49+01:00</time>
      </trkpt>
      <trkpt lat="46.60933" lon="4.66354">
        <ele>222</ele>
        <time>2021-11-15T14:59:54+01:00</time>
      </trkpt>
      <trkpt lat="46.60874" lon="4.66364">
        <ele>220</ele>
        <time>2021-11-15T14:59:59+01:00</time>
      </trkpt>
      <trkpt lat="46.60711" lon="4.66439">
        <ele>219</ele>
        <time>2021-11-15T15:00:04+01:00</time>
      </trkpt>
      <trkpt lat="46.60667" lon="4.66501">
        <ele>222</ele>
        <time>2021-11-15T15:00:09+01:00</time>
      </trkpt>
      <trkpt lat="46.60584" lon="4.66463">
        <ele>219</ele>
        <time>2021-11-15T15:00:14+01:00</time>
      </trkpt>
      <trkpt lat="46.60546" lon="4.66505">
        <ele>220</ele>
        <time>2021-11-15T15:00:19+01:00</time>
      </trkpt>
      <trkpt lat="46.60429" lon="4.66436">
        <ele>216</ele>
        <time>2021-11-15T15:00:24+01:00</time>
      </trkpt>
      <trkpt lat="46.60327" lon="4.66433">
        <ele>213</ele>
        <time>2021-11-15T15:00:29+01:00</time>
      </trkpt>
      <trkpt lat="46.60259" lon="4.66302">
        <ele>210</ele>
        <time>2021-11-15T15:00:34+01:00</time>
      </trkpt>
      <trkpt lat="46.60193" lon="4.66213">
        <ele>215</ele>
        <time>2021-11-15T15:00:39+01:00</time>
      </trkpt>
      <trkpt lat="46.60014" lon="4.66306">
        <ele>222</ele>
        <time>2021-11-15T15:00:44+01:00</time>
      </trkpt>
      <trkpt lat="46.59924" lon="4.66309">
        <ele>231</ele>
        <time>2021-11-15T15:00:49+01:00</time>
      </trkpt>
      <trkpt lat="46.59832" lon="4.66247">
        <ele>242</ele>
        <time>2021-11-15T15:00:54+01:00</time>
      </trkpt>
      <trkpt lat="46.59691" lon="4.66124">
        <ele>245</ele>
        <time>2021-11-15T15:00:59+01:00</time>
      </trkpt>
      <trkpt lat="46.59604" lon="4.66083">
        <ele>240</ele>
        <time>2021-11-15T15:01:04+01:00</time>
      </trkpt>
      <trkpt lat="46.59514" lon="4.65952">
        <ele>238</ele>
        <time>2021-11-15T15:01:09+01:00</time>
      </trkpt>
      <trkpt lat="46.59425" lon="4.65767">
        <ele>240</ele>
        <time>2021-11-15T15:01:14+01:00</time>
      </trkpt>
      <trkpt lat="46.59321" lon="4.6587">
        <ele>232</ele>
        <time>2021-11-15T15:01:19+01:00</time>
      </trkpt>
      <trkpt lat="46.59184" lon="4.65846">
        <ele>228</ele>
        <time>2021-11-15T15:01:24+01:00</time>
      </trkpt>
      <trkpt lat="46.59102" lon="4.65767">
        <ele>226</ele>
        <time>2021-11-15T15:01:29+01:00</time>
      </trkpt>
      <trkpt lat="46.58953" lon="4.65682">
        <ele>217</ele>
        <time>2021-11-15T15:01:34+01:00</time>
      </trkpt>
      <trkpt lat="46.58887" lon="4.65599">
        <ele>212</ele>
        <time>2021-11-15T15:01:39+01:00</time>
      </trkpt>
      <trkpt lat="46.58741" lon="4.65555">
        <ele>207</ele>
        <time>2021-11-15T15:01:44+01:00</time>
      </trkpt>
      <trkpt lat="46.58555" lon="4.65476">
        <ele>217</ele>
        <time>2021-11-15T15:01:49+01:00</time>
      </trkpt>
      <trkpt lat="46.58355" lon="4.65489">
        <ele>236</ele>
        <time>2021-11-15T15:01:54+01:00</time>
      </trkpt>
      <trkpt lat="46.58088" lon="4.65472">
        <ele>247</ele>
        <time>2021-11-15T15:01:59+01:00</time>
      </trkpt>
      <trkpt lat="46.57905" lon="4.654">
        <ele>246</ele>
        <time>2021-11-15T15:02:04+01:00</time>
      </trkpt>
      <trkpt lat="46.57824" lon="4.65328">
        <ele>248</ele>
        <time>2021-11-15T15:02:09+01:00</time>
      </trkpt>
      <trkpt lat="46.57775" lon="4.6526">
        <ele>251</ele>
        <time>2021-11-15T15:02:14+01:00</time>
      </trkpt>
      <trkpt lat="46.57721" lon="4.65232">
        <ele>251</ele>
        <time>2021-11-15T15:02:19+01:00</time>
      </trkpt>
      <trkpt lat="46.57679" lon="4.65398">
        <ele>245</ele>
        <time>2021-11-15T15:02:24+01:00</time>
      </trkpt>
      <trkpt lat="46.5748" lon="4.6543">
        <ele>236</ele>
        <time>2021-11-15T15:02:29+01:00</time>
      </trkpt>
      <trkpt lat="46.57429" lon="4.65563">
        <ele>228</ele>
        <time>2021-11-15T15:02:34+01:00</time>
      </trkpt>
      <trkpt lat="46.57278" lon="4.65674">
        <ele>217</ele>
        <time>2021-11-15T15:02:39+01:00</time>
      </trkpt>
      <trkpt lat="46.571" lon="4.65927">
        <ele>209</ele>
        <time>2021-11-15T15:02:44+01:00</time>
      </trkpt>
      <trkpt lat="46.57148" lon="4.65996">
        <ele>210</ele>
        <time>2021-11-15T15:02:49+01:00</time>
      </trkpt>
      <trkpt lat="46.57059" lon="4.66102">
        <ele>201</ele>
        <time>2021-11-15T15:02:54+01:00</time>
      </trkpt>
      <trkpt lat="46.57081" lon="4.66157">
        <ele>199</ele>
        <time>2021-11-15T15:02:59+01:00</time>
      </trkpt>
      <trkpt lat="46.56968" lon="4.663">
        <ele>196</ele>
        <time>2021-11-15T15:03:04+01:00</time>
      </trkpt>
      <trkpt lat="46.56831" lon="4.66323">
        <ele>199</ele>
        <time>2021-11-15T15:03:09+01:00</time>
      </trkpt>
      <trkpt lat="46.56746" lon="4.66415">
        <ele>198</ele>
        <time>2021-11-15T15:03:14+01:00</time>
      </trkpt>
      <trkpt lat="46.56613" lon="4.67009">
        <ele>196</ele>
        <time>2021-11-15T15:03:19+01:00</time>
      </trkpt>
      <trkpt lat="46.56534" lon="4.6716">
        <ele>196</ele>
        <time>2021-11-15T15:03:24+01:00</time>
      </trkpt>
      <trkpt lat="46.56515" lon="4.67565">
        <ele>197</ele>
        <time>2021-11-15T15:03:29+01:00</time>
      </trkpt>
      <trkpt lat="46.56487" lon="4.67846">
        <ele>202</ele>
        <time>2021-11-15T15:03:34+01:00</time>
      </trkpt>
      <trkpt lat="46.56468" lon="4.67994">
        <ele>203</ele>
        <time>2021-11-15T15:03:39+01:00</time>
      </trkpt>
      <trkpt lat="46.56559" lon="4.68113">
        <ele>205</ele>
        <time>2021-11-15T15:03:44+01:00</time>
      </trkpt>
      <trkpt lat="46.56718" lon="4.68251">
        <ele>205</ele>
        <time>2021-11-15T15:03:49+01:00</time>
      </trkpt>
      <trkpt lat="46.56676" lon="4.6838">
        <ele>206</ele>
        <time>2021-11-15T15:03:54+01:00</time>
      </trkpt>
      <trkpt lat="46.56581" lon="4.68651">
        <ele>209</ele>
        <time>2021-11-15T15:03:59+01:00</time>
      </trkpt>
      <trkpt lat="46.5758" lon="4.69445">
        <ele>208</ele>
        <time>2021-11-15T15:04:04+01:00</time>
      </trkpt>
    </trkseg>
  </trk>
</gpx>